sensor_id;sensor_type;location;lat;lon;timestamp;temperature;humidity
13332;DHT22;6735;51.456;12.626;2023-07-16T00:02:11;21.20;83.50
13332;DHT22;6735;51.456;12.626;2023-07-16T00:04:37;21.30;83.90
13332;DHT22;6735;51.456;12.626;2023-07-16T00:07:03;21.30;83.70
13332;DHT22;6735;51.456;12.626;2023-07-16T00:09:28;21.30;84.30
13332;DHT22;6735;51.456;12.626;2023-07-16T00:11:54;21.40;83.90
13332;DHT22;6735;51.456;12.626;2023-07-16T00:14:19;21.50;84.00
13332;DHT22;6735;51.456;12.626;2023-07-16T00:16:45;21.50;83.80
13332;DHT22;6735;51.456;12.626;2023-07-16T00:19:11;21.50;83.60
13332;DHT22;6735;51.456;12.626;2023-07-16T00:21:37;21.60;83.40
13332;DHT22;6735;51.456;12.626;2023-07-16T00:24:03;21.60;83.50
13332;DHT22;6735;51.456;12.626;2023-07-16T00:26:29;21.70;83.40
13332;DHT22;6735;51.456;12.626;2023-07-16T00:28:54;21.70;83.30
13332;DHT22;6735;51.456;12.626;2023-07-16T00:31:20;21.70;83.30
13332;DHT22;6735;51.456;12.626;2023-07-16T00:33:45;21.70;83.00
13332;DHT22;6735;51.456;12.626;2023-07-16T00:36:11;21.70;83.50
13332;DHT22;6735;51.456;12.626;2023-07-16T00:38:36;21.70;83.90
13332;DHT22;6735;51.456;12.626;2023-07-16T00:41:02;21.70;83.60
13332;DHT22;6735;51.456;12.626;2023-07-16T00:43:28;21.70;83.70
13332;DHT22;6735;51.456;12.626;2023-07-16T00:45:54;21.70;83.70
13332;DHT22;6735;51.456;12.626;2023-07-16T00:48:20;21.60;83.90
13332;DHT22;6735;51.456;12.626;2023-07-16T00:50:46;21.60;83.80
13332;DHT22;6735;51.456;12.626;2023-07-16T00:53:12;21.50;84.30
13332;DHT22;6735;51.456;12.626;2023-07-16T00:55:38;21.50;84.00
13332;DHT22;6735;51.456;12.626;2023-07-16T00:58:06;21.40;84.10
13332;DHT22;6735;51.456;12.626;2023-07-16T01:00:33;21.40;84.30
13332;DHT22;6735;51.456;12.626;2023-07-16T01:03:00;21.40;84.30
13332;DHT22;6735;51.456;12.626;2023-07-16T01:05:34;21.40;84.20
13332;DHT22;6735;51.456;12.626;2023-07-16T01:08:03;21.40;84.30
13332;DHT22;6735;51.456;12.626;2023-07-16T01:10:29;21.40;84.60
13332;DHT22;6735;51.456;12.626;2023-07-16T01:12:56;21.40;84.70
13332;DHT22;6735;51.456;12.626;2023-07-16T01:15:22;21.30;84.80
13332;DHT22;6735;51.456;12.626;2023-07-16T01:17:48;21.40;84.80
13332;DHT22;6735;51.456;12.626;2023-07-16T01:20:13;21.40;84.80
13332;DHT22;6735;51.456;12.626;2023-07-16T01:22:48;21.40;84.70
13332;DHT22;6735;51.456;12.626;2023-07-16T01:25:28;21.40;84.90
13332;DHT22;6735;51.456;12.626;2023-07-16T01:31:10;21.40;85.10
13332;DHT22;6735;51.456;12.626;2023-07-16T01:33:37;21.30;84.70
13332;DHT22;6735;51.456;12.626;2023-07-16T01:36:03;21.20;84.90
13332;DHT22;6735;51.456;12.626;2023-07-16T01:38:29;21.20;85.00
13332;DHT22;6735;51.456;12.626;2023-07-16T01:40:55;21.20;85.10
13332;DHT22;6735;51.456;12.626;2023-07-16T01:43:21;21.10;85.20
13332;DHT22;6735;51.456;12.626;2023-07-16T01:45:46;21.10;85.30
13332;DHT22;6735;51.456;12.626;2023-07-16T01:48:34;21.10;85.60
13332;DHT22;6735;51.456;12.626;2023-07-16T01:51:01;21.00;85.60
13332;DHT22;6735;51.456;12.626;2023-07-16T01:53:27;21.00;85.50
13332;DHT22;6735;51.456;12.626;2023-07-16T01:55:52;21.00;85.70
13332;DHT22;6735;51.456;12.626;2023-07-16T01:58:18;21.00;85.70
13332;DHT22;6735;51.456;12.626;2023-07-16T02:00:44;21.00;86.10
13332;DHT22;6735;51.456;12.626;2023-07-16T02:03:09;20.90;86.10
13332;DHT22;6735;51.456;12.626;2023-07-16T02:05:35;20.90;86.20
13332;DHT22;6735;51.456;12.626;2023-07-16T02:08:00;20.90;86.20
13332;DHT22;6735;51.456;12.626;2023-07-16T02:10:26;20.90;86.60
13332;DHT22;6735;51.456;12.626;2023-07-16T02:12:52;20.80;86.50
13332;DHT22;6735;51.456;12.626;2023-07-16T02:15:17;20.80;86.70
13332;DHT22;6735;51.456;12.626;2023-07-16T02:17:43;20.80;87.00
13332;DHT22;6735;51.456;12.626;2023-07-16T02:20:10;20.80;86.90
13332;DHT22;6735;51.456;12.626;2023-07-16T02:22:38;20.70;86.90
13332;DHT22;6735;51.456;12.626;2023-07-16T02:25:05;20.80;87.00
13332;DHT22;6735;51.456;12.626;2023-07-16T02:27:30;20.70;87.00
13332;DHT22;6735;51.456;12.626;2023-07-16T02:29:56;20.70;87.00
13332;DHT22;6735;51.456;12.626;2023-07-16T02:32:22;20.70;87.10
13332;DHT22;6735;51.456;12.626;2023-07-16T02:34:48;20.70;87.20
13332;DHT22;6735;51.456;12.626;2023-07-16T02:37:13;20.60;87.30
13332;DHT22;6735;51.456;12.626;2023-07-16T02:39:43;20.60;87.40
13332;DHT22;6735;51.456;12.626;2023-07-16T02:42:10;20.50;87.60
13332;DHT22;6735;51.456;12.626;2023-07-16T02:44:35;20.50;87.50
13332;DHT22;6735;51.456;12.626;2023-07-16T02:47:07;20.50;87.80
13332;DHT22;6735;51.456;12.626;2023-07-16T02:49:32;20.50;87.70
13332;DHT22;6735;51.456;12.626;2023-07-16T02:51:58;20.50;87.80
13332;DHT22;6735;51.456;12.626;2023-07-16T02:54:23;20.50;88.00
13332;DHT22;6735;51.456;12.626;2023-07-16T02:56:49;20.50;87.90
13332;DHT22;6735;51.456;12.626;2023-07-16T02:59:14;20.40;88.00
13332;DHT22;6735;51.456;12.626;2023-07-16T03:01:40;20.50;88.10
13332;DHT22;6735;51.456;12.626;2023-07-16T03:04:05;20.50;88.10
13332;DHT22;6735;51.456;12.626;2023-07-16T03:06:31;20.40;88.10
13332;DHT22;6735;51.456;12.626;2023-07-16T03:08:57;20.40;88.10
13332;DHT22;6735;51.456;12.626;2023-07-16T03:11:22;20.40;88.00
13332;DHT22;6735;51.456;12.626;2023-07-16T03:13:49;20.40;88.10
13332;DHT22;6735;51.456;12.626;2023-07-16T03:16:14;20.40;88.00
13332;DHT22;6735;51.456;12.626;2023-07-16T03:18:40;20.40;87.90
13332;DHT22;6735;51.456;12.626;2023-07-16T03:21:06;20.40;87.80
13332;DHT22;6735;51.456;12.626;2023-07-16T03:23:31;20.40;87.90
13332;DHT22;6735;51.456;12.626;2023-07-16T03:25:57;20.40;87.80
13332;DHT22;6735;51.456;12.626;2023-07-16T03:28:22;20.40;87.80
13332;DHT22;6735;51.456;12.626;2023-07-16T03:30:49;20.40;87.90
13332;DHT22;6735;51.456;12.626;2023-07-16T03:33:15;20.40;87.80
13332;DHT22;6735;51.456;12.626;2023-07-16T03:35:44;20.40;87.70
13332;DHT22;6735;51.456;12.626;2023-07-16T03:38:11;20.40;87.80
13332;DHT22;6735;51.456;12.626;2023-07-16T03:40:37;20.40;87.70
13332;DHT22;6735;51.456;12.626;2023-07-16T03:43:02;20.40;87.80
13332;DHT22;6735;51.456;12.626;2023-07-16T03:45:28;20.40;87.90
13332;DHT22;6735;51.456;12.626;2023-07-16T03:47:54;20.40;87.90
13332;DHT22;6735;51.456;12.626;2023-07-16T03:50:19;20.40;87.90
13332;DHT22;6735;51.456;12.626;2023-07-16T03:52:45;20.40;87.80
13332;DHT22;6735;51.456;12.626;2023-07-16T03:55:10;20.40;87.70
13332;DHT22;6735;51.456;12.626;2023-07-16T03:57:36;20.40;87.90
13332;DHT22;6735;51.456;12.626;2023-07-16T04:00:06;20.40;87.90
13332;DHT22;6735;51.456;12.626;2023-07-16T04:02:35;20.40;87.90
13332;DHT22;6735;51.456;12.626;2023-07-16T04:05:02;20.40;87.70
13332;DHT22;6735;51.456;12.626;2023-07-16T04:07:27;20.30;87.70
13332;DHT22;6735;51.456;12.626;2023-07-16T04:09:53;20.30;87.80
13332;DHT22;6735;51.456;12.626;2023-07-16T04:12:18;20.40;87.90
13332;DHT22;6735;51.456;12.626;2023-07-16T04:14:44;20.40;87.90
13332;DHT22;6735;51.456;12.626;2023-07-16T04:17:09;20.30;87.70
13332;DHT22;6735;51.456;12.626;2023-07-16T04:19:35;20.40;87.80
13332;DHT22;6735;51.456;12.626;2023-07-16T04:22:01;20.40;87.70
13332;DHT22;6735;51.456;12.626;2023-07-16T04:24:27;20.50;87.90
13332;DHT22;6735;51.456;12.626;2023-07-16T04:26:53;20.50;87.70
13332;DHT22;6735;51.456;12.626;2023-07-16T04:29:19;20.60;87.60
13332;DHT22;6735;51.456;12.626;2023-07-16T04:31:45;20.60;87.50
13332;DHT22;6735;51.456;12.626;2023-07-16T04:34:10;20.70;87.30
13332;DHT22;6735;51.456;12.626;2023-07-16T04:36:36;20.80;86.90
13332;DHT22;6735;51.456;12.626;2023-07-16T04:39:01;20.90;86.90
13332;DHT22;6735;51.456;12.626;2023-07-16T04:41:27;20.90;86.60
13332;DHT22;6735;51.456;12.626;2023-07-16T04:43:53;21.10;86.40
13332;DHT22;6735;51.456;12.626;2023-07-16T04:46:18;21.20;86.20
13332;DHT22;6735;51.456;12.626;2023-07-16T04:48:44;21.30;86.10
13332;DHT22;6735;51.456;12.626;2023-07-16T04:51:09;21.50;85.80
13332;DHT22;6735;51.456;12.626;2023-07-16T04:53:35;21.60;85.40
13332;DHT22;6735;51.456;12.626;2023-07-16T04:56:00;21.80;85.20
13332;DHT22;6735;51.456;12.626;2023-07-16T04:58:26;22.00;84.60
13332;DHT22;6735;51.456;12.626;2023-07-16T05:00:51;22.30;84.10
13332;DHT22;6735;51.456;12.626;2023-07-16T05:03:17;22.40;83.70
13332;DHT22;6735;51.456;12.626;2023-07-16T05:05:42;22.50;83.10
13332;DHT22;6735;51.456;12.626;2023-07-16T05:08:08;22.60;83.10
13332;DHT22;6735;51.456;12.626;2023-07-16T05:10:34;22.60;82.90
13332;DHT22;6735;51.456;12.626;2023-07-16T05:12:59;22.70;82.50
13332;DHT22;6735;51.456;12.626;2023-07-16T05:15:25;22.60;82.60
13332;DHT22;6735;51.456;12.626;2023-07-16T05:17:50;22.50;82.80
13332;DHT22;6735;51.456;12.626;2023-07-16T05:20:16;22.50;82.70
13332;DHT22;6735;51.456;12.626;2023-07-16T05:22:42;22.50;82.50
13332;DHT22;6735;51.456;12.626;2023-07-16T05:25:07;23.00;81.50
13332;DHT22;6735;51.456;12.626;2023-07-16T05:27:33;24.20;79.20
13332;DHT22;6735;51.456;12.626;2023-07-16T05:29:59;25.60;75.50
13332;DHT22;6735;51.456;12.626;2023-07-16T05:32:24;25.70;74.90
13332;DHT22;6735;51.456;12.626;2023-07-16T05:34:50;26.70;71.40
13332;DHT22;6735;51.456;12.626;2023-07-16T05:37:15;26.80;71.00
13332;DHT22;6735;51.456;12.626;2023-07-16T05:39:41;26.40;71.40
13332;DHT22;6735;51.456;12.626;2023-07-16T05:42:06;25.80;73.00
13332;DHT22;6735;51.456;12.626;2023-07-16T05:44:33;25.00;73.60
13332;DHT22;6735;51.456;12.626;2023-07-16T05:46:58;24.60;74.50
13332;DHT22;6735;51.456;12.626;2023-07-16T05:49:25;24.50;75.20
13332;DHT22;6735;51.456;12.626;2023-07-16T05:51:51;24.20;74.40
13332;DHT22;6735;51.456;12.626;2023-07-16T05:54:17;24.10;74.90
13332;DHT22;6735;51.456;12.626;2023-07-16T05:56:42;24.00;75.10
13332;DHT22;6735;51.456;12.626;2023-07-16T05:59:08;24.00;74.70
13332;DHT22;6735;51.456;12.626;2023-07-16T06:01:33;24.00;74.70
13332;DHT22;6735;51.456;12.626;2023-07-16T06:03:59;23.80;74.70
13332;DHT22;6735;51.456;12.626;2023-07-16T06:06:29;23.70;74.60
13332;DHT22;6735;51.456;12.626;2023-07-16T06:08:55;25.20;69.50
13332;DHT22;6735;51.456;12.626;2023-07-16T06:11:20;26.80;65.70
13332;DHT22;6735;51.456;12.626;2023-07-16T06:13:46;28.30;62.40
13332;DHT22;6735;51.456;12.626;2023-07-16T06:16:11;29.30;59.10
13332;DHT22;6735;51.456;12.626;2023-07-16T06:18:37;29.90;58.70
13332;DHT22;6735;51.456;12.626;2023-07-16T06:21:02;30.90;56.30
13332;DHT22;6735;51.456;12.626;2023-07-16T06:23:28;31.30;54.70
13332;DHT22;6735;51.456;12.626;2023-07-16T06:25:54;31.50;53.70
13332;DHT22;6735;51.456;12.626;2023-07-16T06:28:20;31.90;53.10
13332;DHT22;6735;51.456;12.626;2023-07-16T06:30:45;32.00;52.00
13332;DHT22;6735;51.456;12.626;2023-07-16T06:33:11;31.80;52.20
13332;DHT22;6735;51.456;12.626;2023-07-16T06:35:37;31.70;51.20
13332;DHT22;6735;51.456;12.626;2023-07-16T06:38:02;31.90;49.90
13332;DHT22;6735;51.456;12.626;2023-07-16T06:40:28;30.60;52.10
13332;DHT22;6735;51.456;12.626;2023-07-16T06:42:54;29.20;53.80
13332;DHT22;6735;51.456;12.626;2023-07-16T06:45:20;28.30;55.30
13332;DHT22;6735;51.456;12.626;2023-07-16T06:47:45;27.80;55.90
13332;DHT22;6735;51.456;12.626;2023-07-16T06:50:11;27.10;56.60
13332;DHT22;6735;51.456;12.626;2023-07-16T06:52:36;26.90;57.20
13332;DHT22;6735;51.456;12.626;2023-07-16T06:55:02;27.70;55.10
13332;DHT22;6735;51.456;12.626;2023-07-16T06:57:28;28.50;53.60
13332;DHT22;6735;51.456;12.626;2023-07-16T06:59:53;28.90;52.80
13332;DHT22;6735;51.456;12.626;2023-07-16T07:02:19;29.30;51.70
13332;DHT22;6735;51.456;12.626;2023-07-16T07:04:45;29.90;50.60
13332;DHT22;6735;51.456;12.626;2023-07-16T07:07:11;30.10;49.90
13332;DHT22;6735;51.456;12.626;2023-07-16T07:09:36;30.30;48.70
13332;DHT22;6735;51.456;12.626;2023-07-16T07:12:02;30.30;48.40
13332;DHT22;6735;51.456;12.626;2023-07-16T07:14:28;30.30;48.50
13332;DHT22;6735;51.456;12.626;2023-07-16T07:16:53;30.30;48.10
13332;DHT22;6735;51.456;12.626;2023-07-16T07:19:19;30.30;48.10
13332;DHT22;6735;51.456;12.626;2023-07-16T07:21:44;30.00;48.60
13332;DHT22;6735;51.456;12.626;2023-07-16T07:24:10;30.20;48.40
13332;DHT22;6735;51.456;12.626;2023-07-16T07:26:35;29.80;47.70
13332;DHT22;6735;51.456;12.626;2023-07-16T07:29:01;29.70;48.30
13332;DHT22;6735;51.456;12.626;2023-07-16T07:31:27;30.20;47.90
13332;DHT22;6735;51.456;12.626;2023-07-16T07:33:52;30.10;47.70
13332;DHT22;6735;51.456;12.626;2023-07-16T07:36:19;29.80;48.00
13332;DHT22;6735;51.456;12.626;2023-07-16T07:38:44;29.70;47.60
13332;DHT22;6735;51.456;12.626;2023-07-16T07:41:10;29.70;47.50
13332;DHT22;6735;51.456;12.626;2023-07-16T07:43:35;29.40;46.90
13332;DHT22;6735;51.456;12.626;2023-07-16T07:46:01;29.40;47.60
13332;DHT22;6735;51.456;12.626;2023-07-16T07:48:26;29.70;47.20
13332;DHT22;6735;51.456;12.626;2023-07-16T07:50:52;29.40;47.20
13332;DHT22;6735;51.456;12.626;2023-07-16T07:53:18;29.70;46.60
13332;DHT22;6735;51.456;12.626;2023-07-16T07:55:44;29.60;47.00
13332;DHT22;6735;51.456;12.626;2023-07-16T07:58:10;29.30;46.70
13332;DHT22;6735;51.456;12.626;2023-07-16T08:00:35;29.20;45.90
13332;DHT22;6735;51.456;12.626;2023-07-16T08:03:01;29.40;45.40
13332;DHT22;6735;51.456;12.626;2023-07-16T08:05:27;29.40;45.00
13332;DHT22;6735;51.456;12.626;2023-07-16T08:07:52;29.50;44.50
13332;DHT22;6735;51.456;12.626;2023-07-16T08:10:18;29.60;44.00
13332;DHT22;6735;51.456;12.626;2023-07-16T08:12:44;29.70;44.00
13332;DHT22;6735;51.456;12.626;2023-07-16T08:15:11;30.20;43.40
13332;DHT22;6735;51.456;12.626;2023-07-16T08:17:41;30.40;42.90
13332;DHT22;6735;51.456;12.626;2023-07-16T08:20:07;30.40;42.30
13332;DHT22;6735;51.456;12.626;2023-07-16T08:22:33;30.40;42.30
13332;DHT22;6735;51.456;12.626;2023-07-16T08:24:58;29.90;42.70
13332;DHT22;6735;51.456;12.626;2023-07-16T08:27:24;29.90;42.60
13332;DHT22;6735;51.456;12.626;2023-07-16T08:29:49;30.30;41.90
13332;DHT22;6735;51.456;12.626;2023-07-16T08:32:15;30.60;40.80
13332;DHT22;6735;51.456;12.626;2023-07-16T08:34:40;30.80;40.70
13332;DHT22;6735;51.456;12.626;2023-07-16T08:37:06;31.00;40.50
13332;DHT22;6735;51.456;12.626;2023-07-16T08:39:31;30.80;40.20
13332;DHT22;6735;51.456;12.626;2023-07-16T08:41:57;31.00;38.90
13332;DHT22;6735;51.456;12.626;2023-07-16T08:44:23;30.70;39.90
13332;DHT22;6735;51.456;12.626;2023-07-16T08:46:50;30.90;39.30
13332;DHT22;6735;51.456;12.626;2023-07-16T08:49:17;30.90;39.00
13332;DHT22;6735;51.456;12.626;2023-07-16T08:51:48;30.70;39.50
13332;DHT22;6735;51.456;12.626;2023-07-16T08:54:14;30.20;40.00
13332;DHT22;6735;51.456;12.626;2023-07-16T08:56:43;29.80;39.60
13332;DHT22;6735;51.456;12.626;2023-07-16T08:59:10;30.00;39.20
13332;DHT22;6735;51.456;12.626;2023-07-16T09:01:37;29.50;38.30
13332;DHT22;6735;51.456;12.626;2023-07-16T09:04:03;29.70;37.50
13332;DHT22;6735;51.456;12.626;2023-07-16T09:06:28;30.50;36.50
13332;DHT22;6735;51.456;12.626;2023-07-16T09:08:54;30.90;35.60
13332;DHT22;6735;51.456;12.626;2023-07-16T09:11:20;31.10;34.50
13332;DHT22;6735;51.456;12.626;2023-07-16T09:13:48;31.20;34.50
13332;DHT22;6735;51.456;12.626;2023-07-16T09:16:13;31.20;34.10
13332;DHT22;6735;51.456;12.626;2023-07-16T09:18:41;31.30;33.80
13332;DHT22;6735;51.456;12.626;2023-07-16T09:21:07;31.70;33.70
13332;DHT22;6735;51.456;12.626;2023-07-16T09:23:33;31.40;33.80
13332;DHT22;6735;51.456;12.626;2023-07-16T09:25:59;30.70;35.00
13332;DHT22;6735;51.456;12.626;2023-07-16T09:28:25;30.60;34.70
13332;DHT22;6735;51.456;12.626;2023-07-16T09:30:51;30.90;34.60
13332;DHT22;6735;51.456;12.626;2023-07-16T09:35:44;31.20;34.80
13332;DHT22;6735;51.456;12.626;2023-07-16T09:38:10;31.60;34.40
13332;DHT22;6735;51.456;12.626;2023-07-16T09:40:40;31.80;34.30
13332;DHT22;6735;51.456;12.626;2023-07-16T09:43:09;31.50;34.00
13332;DHT22;6735;51.456;12.626;2023-07-16T09:45:35;30.90;35.20
13332;DHT22;6735;51.456;12.626;2023-07-16T09:48:02;30.80;35.20
13332;DHT22;6735;51.456;12.626;2023-07-16T09:50:29;31.10;34.50
13332;DHT22;6735;51.456;12.626;2023-07-16T09:52:57;31.40;34.30
13332;DHT22;6735;51.456;12.626;2023-07-16T09:55:24;31.50;33.90
13332;DHT22;6735;51.456;12.626;2023-07-16T09:57:55;31.50;33.80
13332;DHT22;6735;51.456;12.626;2023-07-16T10:00:23;32.00;33.10
13332;DHT22;6735;51.456;12.626;2023-07-16T10:02:50;32.10;32.70
13332;DHT22;6735;51.456;12.626;2023-07-16T10:05:18;32.20;31.20
13332;DHT22;6735;51.456;12.626;2023-07-16T10:07:58;32.10;31.70
13332;DHT22;6735;51.456;12.626;2023-07-16T10:10:54;31.90;29.10
13332;DHT22;6735;51.456;12.626;2023-07-16T10:13:23;31.90;30.00
13332;DHT22;6735;51.456;12.626;2023-07-16T10:15:54;31.70;31.00
13332;DHT22;6735;51.456;12.626;2023-07-16T10:18:27;32.10;30.50
13332;DHT22;6735;51.456;12.626;2023-07-16T10:20:53;32.10;29.50
13332;DHT22;6735;51.456;12.626;2023-07-16T10:23:19;31.90;30.50
13332;DHT22;6735;51.456;12.626;2023-07-16T10:26:04;32.20;29.50
13332;DHT22;6735;51.456;12.626;2023-07-16T10:28:35;32.40;28.40
13332;DHT22;6735;51.456;12.626;2023-07-16T10:31:01;32.20;29.80
13332;DHT22;6735;51.456;12.626;2023-07-16T10:33:27;32.30;29.60
13332;DHT22;6735;51.456;12.626;2023-07-16T10:35:53;32.10;29.00
13332;DHT22;6735;51.456;12.626;2023-07-16T10:38:19;32.20;29.40
13332;DHT22;6735;51.456;12.626;2023-07-16T10:40:45;32.20;29.30
13332;DHT22;6735;51.456;12.626;2023-07-16T10:43:12;32.00;29.20
13332;DHT22;6735;51.456;12.626;2023-07-16T10:45:37;31.80;29.30
13332;DHT22;6735;51.456;12.626;2023-07-16T10:48:03;31.80;29.70
13332;DHT22;6735;51.456;12.626;2023-07-16T10:50:32;31.90;29.10
13332;DHT22;6735;51.456;12.626;2023-07-16T10:52:59;31.90;29.30
13332;DHT22;6735;51.456;12.626;2023-07-16T10:55:28;32.10;29.60
13332;DHT22;6735;51.456;12.626;2023-07-16T10:57:54;32.20;29.30
13332;DHT22;6735;51.456;12.626;2023-07-16T11:00:21;31.90;29.70
13332;DHT22;6735;51.456;12.626;2023-07-16T11:02:49;32.20;29.40
13332;DHT22;6735;51.456;12.626;2023-07-16T11:05:16;32.20;29.10
13332;DHT22;6735;51.456;12.626;2023-07-16T11:07:46;31.90;29.20
13332;DHT22;6735;51.456;12.626;2023-07-16T11:10:12;31.80;29.10
13332;DHT22;6735;51.456;12.626;2023-07-16T11:12:38;31.90;29.40
13332;DHT22;6735;51.456;12.626;2023-07-16T11:15:03;32.20;28.80
13332;DHT22;6735;51.456;12.626;2023-07-16T11:17:29;32.10;29.20
13332;DHT22;6735;51.456;12.626;2023-07-16T11:19:55;31.90;28.40
13332;DHT22;6735;51.456;12.626;2023-07-16T11:22:25;31.80;29.20
13332;DHT22;6735;51.456;12.626;2023-07-16T11:24:54;31.90;29.20
13332;DHT22;6735;51.456;12.626;2023-07-16T11:27:22;32.10;29.20
13332;DHT22;6735;51.456;12.626;2023-07-16T11:29:52;32.40;28.70
13332;DHT22;6735;51.456;12.626;2023-07-16T11:32:29;32.10;28.80
13332;DHT22;6735;51.456;12.626;2023-07-16T11:34:55;32.50;28.20
13332;DHT22;6735;51.456;12.626;2023-07-16T11:37:21;32.50;28.50
13332;DHT22;6735;51.456;12.626;2023-07-16T11:39:47;32.40;28.80
13332;DHT22;6735;51.456;12.626;2023-07-16T11:42:13;32.30;29.00
13332;DHT22;6735;51.456;12.626;2023-07-16T11:44:40;32.70;28.60
13332;DHT22;6735;51.456;12.626;2023-07-16T11:47:05;33.00;28.30
13332;DHT22;6735;51.456;12.626;2023-07-16T11:49:31;32.80;28.20
13332;DHT22;6735;51.456;12.626;2023-07-16T11:51:57;32.90;28.20
13332;DHT22;6735;51.456;12.626;2023-07-16T11:54:23;32.70;28.40
13332;DHT22;6735;51.456;12.626;2023-07-16T11:56:49;32.50;28.40
13332;DHT22;6735;51.456;12.626;2023-07-16T11:59:16;32.40;28.40
13332;DHT22;6735;51.456;12.626;2023-07-16T12:01:46;32.50;28.10
13332;DHT22;6735;51.456;12.626;2023-07-16T12:04:12;32.50;27.60
13332;DHT22;6735;51.456;12.626;2023-07-16T12:06:38;32.60;27.60
13332;DHT22;6735;51.456;12.626;2023-07-16T12:09:03;32.40;27.60
13332;DHT22;6735;51.456;12.626;2023-07-16T12:11:29;32.50;27.80
13332;DHT22;6735;51.456;12.626;2023-07-16T12:13:54;32.30;28.10
13332;DHT22;6735;51.456;12.626;2023-07-16T12:16:20;32.40;28.00
13332;DHT22;6735;51.456;12.626;2023-07-16T12:18:45;32.40;27.80
13332;DHT22;6735;51.456;12.626;2023-07-16T12:21:11;32.40;27.80
13332;DHT22;6735;51.456;12.626;2023-07-16T12:23:36;32.70;27.50
13332;DHT22;6735;51.456;12.626;2023-07-16T12:26:02;32.80;27.40
13332;DHT22;6735;51.456;12.626;2023-07-16T12:28:27;32.80;27.00
13332;DHT22;6735;51.456;12.626;2023-07-16T12:30:53;32.70;27.30
13332;DHT22;6735;51.456;12.626;2023-07-16T12:33:18;33.10;27.10
13332;DHT22;6735;51.456;12.626;2023-07-16T12:35:44;33.20;26.70
13332;DHT22;6735;51.456;12.626;2023-07-16T12:38:09;33.10;26.80
13332;DHT22;6735;51.456;12.626;2023-07-16T12:40:35;32.90;26.80
13332;DHT22;6735;51.456;12.626;2023-07-16T12:43:05;32.90;26.90
13332;DHT22;6735;51.456;12.626;2023-07-16T12:45:30;33.10;26.60
13332;DHT22;6735;51.456;12.626;2023-07-16T12:47:56;32.80;26.60
13332;DHT22;6735;51.456;12.626;2023-07-16T12:50:22;32.70;26.60
13332;DHT22;6735;51.456;12.626;2023-07-16T12:52:48;32.70;26.50
13332;DHT22;6735;51.456;12.626;2023-07-16T12:55:14;32.70;26.40
13332;DHT22;6735;51.456;12.626;2023-07-16T12:57:39;32.80;26.60
13332;DHT22;6735;51.456;12.626;2023-07-16T13:00:06;32.70;26.70
13332;DHT22;6735;51.456;12.626;2023-07-16T13:02:32;32.70;26.80
13332;DHT22;6735;51.456;12.626;2023-07-16T13:04:57;33.00;26.60
13332;DHT22;6735;51.456;12.626;2023-07-16T13:07:23;33.00;26.60
13332;DHT22;6735;51.456;12.626;2023-07-16T13:09:48;32.90;26.60
13332;DHT22;6735;51.456;12.626;2023-07-16T13:12:14;32.70;26.40
13332;DHT22;6735;51.456;12.626;2023-07-16T13:14:39;32.80;26.50
13332;DHT22;6735;51.456;12.626;2023-07-16T13:17:05;33.10;25.90
13332;DHT22;6735;51.456;12.626;2023-07-16T13:19:30;33.00;25.70
13332;DHT22;6735;51.456;12.626;2023-07-16T13:21:56;32.90;25.70
13332;DHT22;6735;51.456;12.626;2023-07-16T13:24:21;33.10;25.70
13332;DHT22;6735;51.456;12.626;2023-07-16T13:26:47;33.00;25.30
13332;DHT22;6735;51.456;12.626;2023-07-16T13:29:12;32.90;25.50
13332;DHT22;6735;51.456;12.626;2023-07-16T13:31:38;32.90;25.40
13332;DHT22;6735;51.456;12.626;2023-07-16T13:34:04;32.80;25.40
13332;DHT22;6735;51.456;12.626;2023-07-16T13:36:30;32.50;24.80
13332;DHT22;6735;51.456;12.626;2023-07-16T13:38:55;32.60;25.40
13332;DHT22;6735;51.456;12.626;2023-07-16T13:41:21;32.50;25.40
13332;DHT22;6735;51.456;12.626;2023-07-16T13:43:47;32.30;25.60
13332;DHT22;6735;51.456;12.626;2023-07-16T13:46:12;32.40;25.60
13332;DHT22;6735;51.456;12.626;2023-07-16T13:48:38;32.20;25.90
13332;DHT22;6735;51.456;12.626;2023-07-16T13:51:04;32.30;25.90
13332;DHT22;6735;51.456;12.626;2023-07-16T13:53:30;32.50;25.70
13332;DHT22;6735;51.456;12.626;2023-07-16T13:55:55;32.50;25.70
13332;DHT22;6735;51.456;12.626;2023-07-16T13:58:21;32.20;25.70
13332;DHT22;6735;51.456;12.626;2023-07-16T14:00:46;32.20;25.60
13332;DHT22;6735;51.456;12.626;2023-07-16T14:03:12;32.20;25.70
13332;DHT22;6735;51.456;12.626;2023-07-16T14:05:37;32.20;25.90
13332;DHT22;6735;51.456;12.626;2023-07-16T14:08:05;32.10;25.80
13332;DHT22;6735;51.456;12.626;2023-07-16T14:10:30;32.30;25.90
13332;DHT22;6735;51.456;12.626;2023-07-16T14:12:56;32.30;25.90
13332;DHT22;6735;51.456;12.626;2023-07-16T14:15:21;32.20;26.00
13332;DHT22;6735;51.456;12.626;2023-07-16T14:17:47;32.10;26.20
13332;DHT22;6735;51.456;12.626;2023-07-16T14:20:12;32.10;26.30
13332;DHT22;6735;51.456;12.626;2023-07-16T14:22:38;32.20;26.10
13332;DHT22;6735;51.456;12.626;2023-07-16T14:25:04;32.00;26.30
13332;DHT22;6735;51.456;12.626;2023-07-16T14:27:29;32.00;26.50
13332;DHT22;6735;51.456;12.626;2023-07-16T14:29:57;32.20;26.20
13332;DHT22;6735;51.456;12.626;2023-07-16T14:32:22;32.10;25.60
13332;DHT22;6735;51.456;12.626;2023-07-16T14:34:48;31.90;25.30
13332;DHT22;6735;51.456;12.626;2023-07-16T14:37:13;31.70;25.80
13332;DHT22;6735;51.456;12.626;2023-07-16T14:39:39;31.80;25.80
13332;DHT22;6735;51.456;12.626;2023-07-16T14:42:04;31.90;26.10
13332;DHT22;6735;51.456;12.626;2023-07-16T14:44:30;31.90;26.10
13332;DHT22;6735;51.456;12.626;2023-07-16T14:46:56;32.00;26.20
13332;DHT22;6735;51.456;12.626;2023-07-16T14:49:21;32.00;26.10
13332;DHT22;6735;51.456;12.626;2023-07-16T14:51:47;31.90;26.30
13332;DHT22;6735;51.456;12.626;2023-07-16T14:54:12;32.00;26.40
13332;DHT22;6735;51.456;12.626;2023-07-16T14:56:38;31.90;26.60
13332;DHT22;6735;51.456;12.626;2023-07-16T14:59:03;31.90;26.50
13332;DHT22;6735;51.456;12.626;2023-07-16T15:01:29;31.80;26.50
13332;DHT22;6735;51.456;12.626;2023-07-16T15:03:54;31.80;26.50
13332;DHT22;6735;51.456;12.626;2023-07-16T15:06:20;31.70;26.40
13332;DHT22;6735;51.456;12.626;2023-07-16T15:08:46;31.70;26.40
13332;DHT22;6735;51.456;12.626;2023-07-16T15:11:12;31.70;26.30
13332;DHT22;6735;51.456;12.626;2023-07-16T15:13:37;31.70;26.40
13332;DHT22;6735;51.456;12.626;2023-07-16T15:16:03;31.30;27.00
13332;DHT22;6735;51.456;12.626;2023-07-16T15:18:29;31.00;27.10
13332;DHT22;6735;51.456;12.626;2023-07-16T15:20:59;30.80;27.10
13332;DHT22;6735;51.456;12.626;2023-07-16T15:23:25;30.70;27.00
13332;DHT22;6735;51.456;12.626;2023-07-16T15:25:52;30.70;27.20
13332;DHT22;6735;51.456;12.626;2023-07-16T15:28:17;30.60;27.20
13332;DHT22;6735;51.456;12.626;2023-07-16T15:30:43;30.60;27.40